Time;durP1;ratioP1;P1;durP2;ratioP2;P2;SDS_P1;SDS_P2;PMS_P1;PMS_P2;Temp;Humidity;BMP_temperature;BMP_pressure;BME280_temperature;BME280_humidity;BME280_pressure;Samples;Min_cycle;Max_cycle;Signal;HPM_P1;HPM_P2
2021/08/26 00:07:05;;;;;;;0.90;0.55;;;20.00;59.90;;;;;;5059492;28;20147;-81
2021/08/26 00:09:31;;;;;;;0.85;0.60;;;20.00;59.90;;;;;;5093103;28;20277;-80
2021/08/26 00:12:01;;;;;;;0.60;0.60;;;20.00;59.90;;;;;;5058939;28;20154;-79
2021/08/26 00:14:31;;;;;;;0.40;0.30;;;19.90;59.80;;;;;;5110192;28;20252;-82
2021/08/26 00:16:57;;;;;;;1.45;0.47;;;20.00;59.90;;;;;;5092771;28;20244;-80
2021/08/26 00:19:23;;;;;;;1.33;0.38;;;20.00;59.90;;;;;;5058374;28;20189;-81
2021/08/26 00:21:50;;;;;;;1.30;0.50;;;20.00;59.90;;;;;;5024554;28;20162;-80
2021/08/26 00:24:20;;;;;;;0.32;0.32;;;20.00;59.90;;;;;;5058561;28;20155;-79
2021/08/26 00:26:46;;;;;;;0.40;0.40;;;20.00;59.90;;;;;;5023597;28;20186;-80
2021/08/26 00:29:16;;;;;;;1.45;0.60;;;20.00;60.00;;;;;;5040867;28;20162;-79
2021/08/26 00:31:42;;;;;;;0.30;0.30;;;20.00;60.00;;;;;;5092557;28;20182;-80
2021/08/26 00:34:12;;;;;;;0.60;0.40;;;20.00;60.00;;;;;;5058899;28;20165;-79
2021/08/26 00:36:38;;;;;;;0.75;0.50;;;20.00;60.00;;;;;;5109819;28;20231;-80
2021/08/26 00:39:04;;;;;;;0.40;0.40;;;20.00;60.10;;;;;;5041658;28;20219;-79
2021/08/26 00:41:30;;;;;;;0.95;0.55;;;20.00;60.10;;;;;;5040809;28;20625;-81
2021/08/26 00:43:56;;;;;;;0.90;0.30;;;20.00;60.10;;;;;;5058388;28;20154;-80
2021/08/26 00:46:23;;;;;;;1.05;0.60;;;20.00;60.10;;;;;;5024695;28;20217;-79
2021/08/26 00:48:53;;;;;;;0.47;0.40;;;20.00;60.10;;;;;;5040576;28;20183;-83
2021/08/26 00:51:19;;;;;;;1.55;0.50;;;20.00;60.10;;;;;;5092781;28;20215;-82
2021/08/26 00:53:53;;;;;;;0.63;0.50;;;20.00;60.10;;;;;;5041478;28;20520;-80
2021/08/26 00:56:23;;;;;;;2.15;0.55;;;20.00;60.00;;;;;;5091962;28;20608;-80
2021/08/26 00:58:49;;;;;;;0.50;0.50;;;20.00;60.10;;;;;;5093315;28;20194;-82
2021/08/26 01:01:30;;;;;;;0.88;0.50;;;19.90;60.10;;;;;;5042008;28;20567;-78
2021/08/26 01:04:09;;;;;;;0.40;0.40;;;20.00;60.10;;;;;;5091986;28;20185;-78
2021/08/26 01:06:41;;;;;;;0.57;0.40;;;20.00;60.20;;;;;;5092004;28;20269;-81
2021/08/26 01:09:13;;;;;;;1.85;0.40;;;20.00;60.20;;;;;;5041612;28;20203;-80
2021/08/26 01:11:41;;;;;;;0.40;0.40;;;19.90;60.10;;;;;;5109948;28;20277;-79
2021/08/26 01:14:09;;;;;;;1.30;0.50;;;20.00;60.20;;;;;;5042941;28;20631;-84
2021/08/26 01:16:37;;;;;;;0.47;0.47;;;19.90;60.20;;;;;;5040542;28;20222;-80
2021/08/26 01:19:03;;;;;;;0.90;0.47;;;20.00;60.20;;;;;;5040855;28;20155;-81
2021/08/26 01:21:33;;;;;;;0.40;0.40;;;20.00;60.20;;;;;;5040049;28;20171;-81
2021/08/26 01:24:02;;;;;;;1.25;0.50;;;20.00;60.20;;;;;;5110260;28;20187;-79
2021/08/26 01:26:37;;;;;;;1.65;0.50;;;20.00;60.20;;;;;;5024411;28;20634;-82
2021/08/26 01:29:05;;;;;;;0.60;0.40;;;20.00;61.10;;;;;;5107620;28;20181;-82
2021/08/26 01:31:31;;;;;;;0.68;0.40;;;20.00;60.30;;;;;;5039642;28;20155;-81
2021/08/26 01:33:57;;;;;;;0.47;0.47;;;20.00;60.30;;;;;;5037710;28;20179;-81
2021/08/26 01:36:27;;;;;;;4.80;1.00;;;20.00;60.30;;;;;;5038611;28;20194;-79
2021/08/26 01:38:53;;;;;;;0.43;0.40;;;20.00;60.30;;;;;;5021936;28;20167;-81
2021/08/26 01:41:35;;;;;;;0.75;0.50;;;20.00;60.30;;;;;;5039794;28;20304;-81
2021/08/26 01:44:05;;;;;;;0.57;0.40;;;20.00;60.30;;;;;;5039352;28;20174;-81
2021/08/26 01:46:31;;;;;;;0.70;0.70;;;19.90;60.30;;;;;;5091119;28;20207;-82
2021/08/26 01:49:03;;;;;;;0.50;0.30;;;20.00;60.30;;;;;;5022374;28;20186;-85
2021/08/26 01:51:33;;;;;;;0.88;0.50;;;20.00;60.40;;;;;;5021515;28;20187;-81
2021/08/26 01:54:01;;;;;;;0.57;0.50;;;20.00;60.40;;;;;;5074527;28;20179;-81
2021/08/26 01:56:31;;;;;;;0.45;0.45;;;20.00;60.30;;;;;;5022532;28;20173;-81
2021/08/26 01:58:57;;;;;;;1.30;0.40;;;19.90;60.30;;;;;;5090447;28;20280;-84
2021/08/26 02:01:27;;;;;;;0.73;0.65;;;20.00;60.40;;;;;;5022451;28;20179;-83
2021/08/26 02:03:53;;;;;;;1.00;0.50;;;20.00;60.40;;;;;;5107622;28;20519;-82
2021/08/26 02:06:19;;;;;;;0.60;0.50;;;20.00;60.30;;;;;;5037993;28;20155;-79
2021/08/26 02:08:45;;;;;;;0.50;0.40;;;20.00;60.30;;;;;;5039312;28;20239;-81
2021/08/26 02:11:11;;;;;;;0.40;0.40;;;20.00;60.30;;;;;;5039813;28;20171;-79
2021/08/26 02:13:37;;;;;;;1.38;0.50;;;19.90;60.30;;;;;;5039732;28;20163;-79
2021/08/26 02:16:03;;;;;;;0.50;0.50;;;20.00;60.30;;;;;;5038685;28;20218;-83
2021/08/26 02:18:29;;;;;;;0.52;0.50;;;19.90;60.30;;;;;;5038810;28;20282;-81
2021/08/26 02:20:55;;;;;;;1.58;0.60;;;20.00;60.40;;;;;;5038030;28;20194;-79
2021/08/26 02:23:21;;;;;;;0.40;0.40;;;20.00;60.50;;;;;;5039928;28;20159;-81
2021/08/26 02:25:51;;;;;;;0.40;0.40;;;20.00;60.50;;;;;;5039196;28;20185;-80
2021/08/26 02:28:21;;;;;;;0.85;0.60;;;19.90;60.50;;;;;;5091448;28;20372;-81
2021/08/26 02:30:50;;;;;;;2.05;0.40;;;19.90;60.50;;;;;;5074566;28;20660;-84
2021/08/26 02:33:20;;;;;;;0.63;0.40;;;19.90;60.50;;;;;;5108268;28;20273;-83
2021/08/26 02:35:46;;;;;;;0.60;0.40;;;19.90;60.50;;;;;;5090824;28;20270;-79
2021/08/26 02:38:16;;;;;;;0.40;0.40;;;19.90;60.50;;;;;;5022571;28;20189;-78
2021/08/26 02:40:45;;;;;;;0.68;0.50;;;19.90;60.50;;;;;;5021840;28;20571;-78
2021/08/26 02:43:11;;;;;;;1.02;0.85;;;19.90;60.50;;;;;;5074427;28;20179;-78
2021/08/26 02:45:37;;;;;;;0.55;0.40;;;19.90;60.50;;;;;;5038486;28;20634;-82
2021/08/26 02:48:04;;;;;;;0.35;0.35;;;19.90;60.50;;;;;;5038151;28;20532;-82
2021/08/26 02:50:30;;;;;;;1.10;0.40;;;20.00;60.50;;;;;;5021675;28;20170;-83
2021/08/26 02:53:02;;;;;;;0.43;0.38;;;19.90;60.50;;;;;;5021337;28;20175;-78
2021/08/26 02:55:28;;;;;;;0.95;0.60;;;19.90;60.50;;;;;;5005066;28;20193;-81
2021/08/26 02:57:58;;;;;;;0.32;0.32;;;19.90;60.50;;;;;;5039642;28;20155;-79
2021/08/26 03:00:28;;;;;;;0.40;0.40;;;19.90;60.60;;;;;;5004515;28;20680;-82
2021/08/26 03:03:04;;;;;;;1.67;0.40;;;19.90;60.50;;;;;;5020831;28;20186;-81
2021/08/26 03:05:30;;;;;;;1.40;0.40;;;19.90;60.60;;;;;;5090101;28;20189;-83
2021/08/26 03:07:56;;;;;;;2.13;0.40;;;20.00;60.60;;;;;;5037848;28;20163;-84
2021/08/26 03:10:27;;;;;;;0.30;0.30;;;19.90;60.60;;;;;;5021059;28;20507;-85
2021/08/26 03:12:53;;;;;;;0.40;0.40;;;19.90;60.60;;;;;;5090011;28;20273;-78
2021/08/26 03:15:23;;;;;;;0.63;0.50;;;19.90;60.60;;;;;;5022017;28;20189;-80
2021/08/26 03:17:49;;;;;;;0.50;0.50;;;19.90;60.60;;;;;;5089222;28;20244;-81
2021/08/26 03:20:15;;;;;;;0.45;0.45;;;19.90;60.60;;;;;;5037254;28;20194;-80
2021/08/26 03:22:42;;;;;;;0.40;0.40;;;19.90;60.60;;;;;;5039110;28;20165;-81
2021/08/26 03:25:14;;;;;;;1.30;0.40;;;19.90;60.60;;;;;;5037342;28;20171;-80
2021/08/26 03:27:40;;;;;;;0.50;0.50;;;19.90;60.60;;;;;;5089261;28;20179;-84
2021/08/26 03:30:10;;;;;;;0.50;0.47;;;19.90;60.60;;;;;;5038911;28;20202;-80
2021/08/26 03:32:36;;;;;;;0.65;0.40;;;19.90;60.60;;;;;;5090213;28;20218;-81
2021/08/26 03:35:02;;;;;;;0.80;0.40;;;19.90;60.60;;;;;;5037777;28;20159;-79
2021/08/26 03:37:28;;;;;;;0.40;0.40;;;19.90;60.60;;;;;;5037063;28;20215;-81
2021/08/26 03:39:54;;;;;;;0.60;0.45;;;19.90;60.60;;;;;;5038234;28;20206;-79
2021/08/26 03:42:20;;;;;;;0.40;0.40;;;20.00;60.60;;;;;;5038442;28;20614;-80
2021/08/26 03:44:50;;;;;;;0.40;0.40;;;19.90;60.60;;;;;;5036683;28;20245;-81
2021/08/26 03:47:16;;;;;;;0.68;0.50;;;19.90;60.70;;;;;;5105677;28;20179;-81
2021/08/26 03:49:46;;;;;;;0.77;0.70;;;19.90;60.70;;;;;;5020682;28;20285;-85
2021/08/26 03:52:12;;;;;;;0.55;0.40;;;19.90;60.70;;;;;;5105743;28;20612;-79
2021/08/26 03:54:42;;;;;;;0.55;0.40;;;19.90;60.70;;;;;;5037776;28;20174;-81
2021/08/26 03:57:08;;;;;;;0.57;0.50;;;19.80;60.70;;;;;;5088791;28;20553;-80
2021/08/26 03:59:34;;;;;;;0.50;0.50;;;19.90;60.70;;;;;;5037046;28;20187;-80
2021/08/26 04:02:00;;;;;;;0.63;0.43;;;19.90;60.70;;;;;;5037375;28;20155;-81
2021/08/26 04:04:33;;;;;;;0.50;0.40;;;19.90;60.70;;;;;;5037605;28;20178;-79
2021/08/26 04:06:59;;;;;;;0.40;0.32;;;19.90;60.70;;;;;;5088987;28;20183;-79
2021/08/26 04:09:35;;;;;;;0.40;0.40;;;20.00;60.70;;;;;;5078159;28;20867;-82
2021/08/26 04:12:01;;;;;;;0.90;0.40;;;19.90;60.70;;;;;;5060364;28;20192;-81
2021/08/26 04:14:27;;;;;;;0.70;0.40;;;19.90;60.80;;;;;;5076536;28;20158;-80
2021/08/26 04:16:57;;;;;;;0.70;0.50;;;19.90;60.80;;;;;;5078353;28;20626;-81
2021/08/26 04:19:23;;;;;;;0.50;0.40;;;19.90;60.90;;;;;;5093423;28;20189;-78
2021/08/26 04:21:52;;;;;;;0.47;0.47;;;19.90;60.90;;;;;;5076165;28;20164;-79
2021/08/26 04:24:18;;;;;;;0.40;0.40;;;19.90;61.00;;;;;;5092629;28;20173;-84
2021/08/26 04:26:48;;;;;;;0.50;0.50;;;19.90;61.10;;;;;;5077771;28;20208;-81
2021/08/26 04:29:14;;;;;;;0.55;0.50;;;19.90;61.30;;;;;;5092132;28;20282;-78
2021/08/26 04:31:40;;;;;;;0.57;0.57;;;19.90;61.30;;;;;;5077558;28;20150;-81
2021/08/26 04:34:06;;;;;;;0.40;0.40;;;19.90;61.40;;;;;;5076591;28;20158;-81
2021/08/26 04:36:32;;;;;;;0.50;0.50;;;19.90;61.60;;;;;;5077201;28;20643;-81
2021/08/26 04:38:58;;;;;;;0.50;0.50;;;19.80;61.60;;;;;;5077266;28;20225;-82
2021/08/26 04:41:24;;;;;;;0.40;0.40;;;19.80;61.60;;;;;;5076600;28;20235;-79
2021/08/26 04:43:51;;;;;;;0.50;0.43;;;19.80;61.70;;;;;;5077238;28;20193;-84
2021/08/26 04:46:25;;;;;;;0.55;0.50;;;19.80;62.00;;;;;;5077042;28;20173;-82
2021/08/26 04:48:54;;;;;;;0.98;0.50;;;19.80;62.00;;;;;;5075482;28;20221;-81
2021/08/26 04:51:24;;;;;;;0.50;0.50;;;19.80;62.10;;;;;;5058460;28;20181;-82
2021/08/26 04:53:50;;;;;;;0.40;0.40;;;19.80;62.00;;;;;;5091127;28;20178;-83
2021/08/26 04:56:16;;;;;;;0.60;0.60;;;19.80;62.10;;;;;;5075373;28;20169;-82
2021/08/26 04:58:42;;;;;;;0.68;0.60;;;19.80;63.00;;;;;;5075427;28;20644;-80
2021/08/26 05:01:08;;;;;;;0.60;0.60;;;19.80;62.20;;;;;;5076976;28;20283;-81
2021/08/26 05:03:34;;;;;;;1.08;0.43;;;19.80;62.10;;;;;;5075196;28;20572;-80
2021/08/26 05:06:06;;;;;;;0.55;0.55;;;19.80;62.20;;;;;;5076247;28;20674;-82
2021/08/26 05:08:31;;;;;;;0.60;0.60;;;19.70;62.20;;;;;;5073830;28;20236;-80
2021/08/26 05:11:01;;;;;;;0.88;0.50;;;19.70;62.30;;;;;;5076988;28;20199;-82
2021/08/26 05:13:27;;;;;;;0.40;0.40;;;19.70;62.30;;;;;;5091047;28;20554;-81
2021/08/26 05:15:53;;;;;;;0.55;0.55;;;19.80;62.30;;;;;;5075715;28;20161;-82
2021/08/26 05:18:23;;;;;;;0.57;0.57;;;19.80;62.30;;;;;;5076053;28;20161;-82
2021/08/26 05:20:49;;;;;;;0.60;0.50;;;19.70;62.30;;;;;;5061460;28;20192;-82
2021/08/26 05:23:15;;;;;;;0.50;0.50;;;19.70;62.30;;;;;;5063239;28;20154;-85
2021/08/26 05:25:41;;;;;;;0.95;0.55;;;19.70;62.30;;;;;;5062976;28;20221;-81
2021/08/26 05:28:07;;;;;;;0.50;0.50;;;19.70;62.50;;;;;;5060500;28;20198;-84
2021/08/26 05:30:33;;;;;;;0.40;0.40;;;19.70;62.40;;;;;;5046114;28;20194;-82
2021/08/26 05:33:02;;;;;;;0.60;0.60;;;19.70;62.30;;;;;;5063133;28;20169;-83
2021/08/26 05:35:41;;;;;;;0.57;0.55;;;19.70;62.40;;;;;;5079564;28;20178;-80
2021/08/26 05:38:08;;;;;;;0.70;0.50;;;19.70;62.50;;;;;;5078572;28;20196;-83
2021/08/26 05:40:34;;;;;;;0.57;0.57;;;19.70;62.40;;;;;;5058415;28;20172;-82
2021/08/26 05:43:00;;;;;;;0.47;0.47;;;19.60;62.30;;;;;;5055917;28;20159;-83
2021/08/26 05:45:27;;;;;;;0.95;0.70;;;19.70;62.30;;;;;;5055782;28;20155;-81
2021/08/26 05:47:55;;;;;;;0.68;0.68;;;19.70;62.40;;;;;;5056183;28;20237;-81
2021/08/26 05:50:25;;;;;;;0.90;0.60;;;19.70;62.40;;;;;;5056450;28;20170;-81
2021/08/26 05:52:52;;;;;;;0.73;0.70;;;19.70;62.60;;;;;;5071324;28;20266;-80
2021/08/26 05:55:22;;;;;;;0.60;0.60;;;19.70;62.70;;;;;;5058005;28;20207;-81
2021/08/26 05:57:49;;;;;;;1.08;0.57;;;19.60;62.90;;;;;;5056067;28;20293;-81
2021/08/26 06:00:15;;;;;;;0.60;0.60;;;19.60;63.00;;;;;;5054342;28;20154;-82
2021/08/26 06:02:45;;;;;;;0.80;0.68;;;19.60;62.90;;;;;;5060580;28;20162;-79
2021/08/26 06:05:14;;;;;;;0.60;0.60;;;19.60;63.90;;;;;;5058507;28;20174;-81
2021/08/26 06:07:40;;;;;;;0.82;0.55;;;19.60;63.20;;;;;;5078085;28;20270;-79
2021/08/26 06:10:08;;;;;;;0.80;0.60;;;19.60;63.20;;;;;;5081424;28;20248;-81
2021/08/26 06:12:37;;;;;;;0.65;0.63;;;19.70;63.40;;;;;;5079419;28;20674;-79
2021/08/26 06:15:10;;;;;;;1.15;0.68;;;19.70;63.40;;;;;;5057644;28;20173;-81
2021/08/26 06:17:36;;;;;;;0.60;0.52;;;19.60;63.60;;;;;;5042102;28;20192;-81
2021/08/26 06:20:16;;;;;;;0.75;0.75;;;19.60;63.80;;;;;;5060418;28;20162;-82
2021/08/26 06:22:42;;;;;;;1.40;0.75;;;19.60;64.00;;;;;;5055066;28;20182;-78
2021/08/26 06:25:08;;;;;;;0.80;0.70;;;19.60;64.00;;;;;;5057941;28;20260;-82
2021/08/26 06:27:36;;;;;;;0.52;0.50;;;19.60;64.10;;;;;;5059047;28;20202;-81
2021/08/26 06:30:08;;;;;;;0.70;0.60;;;19.60;64.10;;;;;;5056118;28;20201;-81
2021/08/26 06:32:34;;;;;;;0.88;0.88;;;19.60;64.40;;;;;;5060563;28;20174;-80
2021/08/26 06:35:06;;;;;;;1.25;0.70;;;19.70;64.40;;;;;;5027197;28;20249;-79
2021/08/26 06:37:52;;;;;;;0.80;0.80;;;19.60;64.40;;;;;;5046322;28;20181;-82
2021/08/26 06:40:35;;;;;;;0.88;0.88;;;19.60;64.40;;;;;;5063890;28;20201;-82
2021/08/26 06:43:15;;;;;;;1.45;0.93;;;19.60;64.50;;;;;;5063169;28;20540;-83
2021/08/26 06:45:51;;;;;;;1.58;0.85;;;19.60;64.30;;;;;;5046136;28;20189;-83
2021/08/26 06:48:17;;;;;;;2.33;0.70;;;19.60;64.40;;;;;;5069910;28;20678;-80
2021/08/26 06:51:03;;;;;;;3.45;0.60;;;19.60;64.40;;;;;;5061774;28;20157;-81
2021/08/26 06:53:30;;;;;;;4.57;1.05;;;19.60;64.50;;;;;;5060165;28;20189;-79
2021/08/26 06:56:00;;;;;;;4.15;1.00;;;19.60;64.80;;;;;;5060344;28;20188;-84
2021/08/26 06:58:34;;;;;;;2.85;0.80;;;19.60;64.80;;;;;;5076059;28;20181;-82
2021/08/26 07:01:04;;;;;;;3.20;1.00;;;19.60;64.70;;;;;;5042369;28;20196;-79
2021/08/26 07:03:38;;;;;;;1.67;0.90;;;19.70;64.70;;;;;;5075922;28;20744;-82
2021/08/26 07:06:13;;;;;;;2.88;0.80;;;19.60;64.70;;;;;;5059987;28;20188;-83
2021/08/26 07:08:45;;;;;;;2.92;1.20;;;19.60;64.70;;;;;;5059472;28;20232;-78
2021/08/26 07:11:17;;;;;;;1.52;0.90;;;19.70;64.80;;;;;;5076134;28;20181;-84
2021/08/26 07:13:49;;;;;;;3.80;0.90;;;19.70;64.90;;;;;;5059044;28;20181;-81
2021/08/26 07:16:20;;;;;;;0.85;0.80;;;19.60;64.90;;;;;;5060566;28;20187;-79
2021/08/26 07:18:51;;;;;;;1.75;0.95;;;19.70;64.90;;;;;;5040581;28;20219;-82
2021/08/26 07:21:23;;;;;;;1.88;1.10;;;19.70;65.00;;;;;;5056480;28;20184;-81
2021/08/26 07:23:54;;;;;;;1.33;0.93;;;19.70;65.20;;;;;;5073496;28;20177;-80
2021/08/26 07:26:24;;;;;;;2.97;0.90;;;19.70;65.30;;;;;;5039121;28;20651;-85
2021/08/26 07:28:55;;;;;;;0.95;0.75;;;19.60;65.30;;;;;;5040510;28;20621;-81
2021/08/26 07:31:27;;;;;;;2.15;1.58;;;19.70;65.40;;;;;;5058672;28;20190;-81
2021/08/26 07:33:58;;;;;;;1.02;0.90;;;19.60;65.30;;;;;;5063075;28;20177;-80
2021/08/26 07:36:29;;;;;;;1.98;1.00;;;19.60;65.30;;;;;;5045764;28;20182;-82
2021/08/26 07:39:01;;;;;;;1.30;0.90;;;19.60;65.40;;;;;;5044482;28;20706;-80
2021/08/26 07:41:37;;;;;;;1.58;1.10;;;19.70;65.50;;;;;;5048535;28;20225;-82
2021/08/26 07:44:08;;;;;;;1.50;1.00;;;19.70;65.60;;;;;;5081696;28;20185;-80
2021/08/26 07:46:37;;;;;;;2.13;1.13;;;19.60;65.70;;;;;;5062626;28;20189;-82
2021/08/26 07:49:07;;;;;;;2.92;0.90;;;19.60;65.70;;;;;;5038742;28;20219;-79
2021/08/26 07:51:38;;;;;;;1.55;1.00;;;19.70;66.00;;;;;;5018884;28;20204;-83
2021/08/26 07:54:04;;;;;;;1.20;1.10;;;19.70;66.10;;;;;;5017696;28;20227;-81
2021/08/26 07:56:31;;;;;;;1.75;1.00;;;19.70;66.00;;;;;;5034718;28;20249;-82
2021/08/26 07:58:59;;;;;;;2.55;1.00;;;19.70;66.20;;;;;;5022117;28;20235;-84
2021/08/26 08:01:26;;;;;;;4.07;1.27;;;19.70;66.20;;;;;;5020305;28;20189;-81
2021/08/26 08:03:54;;;;;;;1.58;1.00;;;19.70;66.30;;;;;;5040416;28;20221;-82
2021/08/26 08:06:21;;;;;;;1.33;1.20;;;19.70;66.20;;;;;;5039938;28;20703;-82
2021/08/26 08:08:48;;;;;;;1.58;1.33;;;19.70;66.20;;;;;;5035686;28;20221;-81
2021/08/26 08:11:16;;;;;;;3.15;1.23;;;19.70;66.30;;;;;;5040628;28;20181;-83
2021/08/26 08:13:45;;;;;;;1.75;1.30;;;19.80;66.60;;;;;;5040988;28;20201;-80
2021/08/26 08:16:12;;;;;;;1.77;1.38;;;19.70;66.70;;;;;;5029817;28;20189;-80
2021/08/26 08:18:39;;;;;;;1.63;1.27;;;19.80;66.90;;;;;;5026216;28;20277;-79
2021/08/26 08:21:06;;;;;;;2.30;1.42;;;19.80;66.90;;;;;;5045878;28;20776;-79
2021/08/26 08:23:37;;;;;;;1.40;1.30;;;19.80;67.00;;;;;;5063307;28;20177;-80
2021/08/26 08:26:10;;;;;;;1.20;1.20;;;19.80;67.10;;;;;;5065255;28;20201;-79
2021/08/26 08:28:41;;;;;;;3.13;1.42;;;19.80;67.40;;;;;;5064979;28;20226;-80
2021/08/26 08:31:11;;;;;;;2.50;1.15;;;19.80;68.00;;;;;;5080056;28;20177;-79
2021/08/26 08:33:44;;;;;;;1.52;1.42;;;19.80;67.30;;;;;;5065583;28;20227;-79
2021/08/26 08:36:17;;;;;;;2.60;1.33;;;19.80;67.20;;;;;;5064863;28;20181;-80
2021/08/26 08:38:43;;;;;;;1.58;1.48;;;19.90;67.50;;;;;;5066254;28;20234;-80
2021/08/26 08:41:10;;;;;;;1.75;1.65;;;19.80;67.50;;;;;;5083659;28;20587;-82
2021/08/26 08:43:36;;;;;;;2.65;1.70;;;19.80;67.50;;;;;;5066409;28;20162;-81
2021/08/26 08:46:04;;;;;;;1.70;1.52;;;19.80;67.60;;;;;;5084428;28;20150;-80
2021/08/26 08:48:38;;;;;;;1.92;1.58;;;19.80;67.70;;;;;;5065718;28;20201;-79
2021/08/26 08:51:10;;;;;;;1.67;1.58;;;19.80;68.00;;;;;;5077404;28;20196;-79
2021/08/26 08:53:41;;;;;;;2.30;1.70;;;19.80;68.10;;;;;;5063457;28;20188;-79
2021/08/26 08:56:08;;;;;;;2.22;2.03;;;19.80;68.20;;;;;;5069192;28;20616;-81
2021/08/26 08:58:41;;;;;;;2.78;1.67;;;19.80;68.20;;;;;;5069068;28;20177;-81
2021/08/26 09:01:08;;;;;;;1.70;1.60;;;19.80;68.30;;;;;;5067751;28;20645;-79
2021/08/26 09:03:39;;;;;;;3.45;1.77;;;19.90;68.40;;;;;;5068057;28;20174;-78
2021/08/26 09:06:08;;;;;;;3.60;1.98;;;19.80;68.50;;;;;;5068748;28;20184;-80
2021/08/26 09:08:34;;;;;;;3.45;1.80;;;19.80;68.50;;;;;;5064289;28;20225;-82
2021/08/26 09:11:15;;;;;;;2.28;1.52;;;20.00;68.80;;;;;;5084933;28;20172;-79
2021/08/26 09:13:42;;;;;;;2.42;1.80;;;19.90;69.00;;;;;;5085888;28;20168;-80
2021/08/26 09:16:12;;;;;;;2.33;1.83;;;19.90;68.90;;;;;;5084435;28;20221;-79
2021/08/26 09:18:38;;;;;;;3.58;2.10;;;19.90;69.00;;;;;;5050819;28;20597;-81
2021/08/26 09:21:07;;;;;;;2.80;1.88;;;19.90;69.10;;;;;;5085946;28;20188;-79
2021/08/26 09:23:53;;;;;;;3.72;1.90;;;19.80;69.20;;;;;;5086564;28;20150;-78
2021/08/26 09:26:21;;;;;;;2.30;1.92;;;19.90;69.10;;;;;;5054310;28;20178;-80
2021/08/26 09:28:47;;;;;;;2.30;2.10;;;19.90;69.20;;;;;;5086201;28;20201;-79
2021/08/26 09:31:22;;;;;;;2.08;1.85;;;19.90;69.30;;;;;;5088031;28;20175;-80
2021/08/26 09:34:04;;;;;;;4.00;1.58;;;19.90;69.30;;;;;;5066946;28;20253;-80
2021/08/26 09:36:36;;;;;;;2.22;1.70;;;19.90;69.30;;;;;;5070944;28;20293;-81
2021/08/26 09:39:05;;;;;;;1.83;1.60;;;19.90;69.40;;;;;;5069129;28;20182;-81
2021/08/26 09:41:52;;;;;;;2.88;1.80;;;19.90;69.30;;;;;;5086325;28;20295;-81
2021/08/26 09:44:27;;;;;;;3.28;1.83;;;20.00;69.20;;;;;;5087949;28;20185;-82
2021/08/26 09:46:55;;;;;;;2.25;1.75;;;19.90;69.10;;;;;;5052777;28;20207;-81
2021/08/26 09:49:26;;;;;;;5.05;2.13;;;20.00;69.10;;;;;;5086983;28;20230;-81
2021/08/26 09:52:05;;;;;;;2.03;1.70;;;20.00;69.10;;;;;;5066211;28;20205;-82
2021/08/26 09:54:44;;;;;;;3.10;2.10;;;20.00;69.10;;;;;;5084967;28;20145;-81
2021/08/26 09:57:25;;;;;;;2.65;1.98;;;20.00;69.10;;;;;;5066364;28;20181;-84
2021/08/26 09:59:52;;;;;;;3.10;2.10;;;20.00;69.00;;;;;;5066105;28;20170;-82
2021/08/26 10:02:19;;;;;;;2.47;1.90;;;20.00;69.00;;;;;;5083083;28;20150;-81
2021/08/26 10:04:51;;;;;;;2.15;1.88;;;20.00;69.10;;;;;;5066635;28;20165;-81
2021/08/26 10:07:19;;;;;;;2.58;1.70;;;20.00;69.10;;;;;;5064467;28;20181;-82
2021/08/26 10:09:50;;;;;;;2.72;1.58;;;20.00;69.10;;;;;;5049872;28;20180;-82
2021/08/26 10:12:17;;;;;;;2.55;1.80;;;20.00;69.20;;;;;;5081519;28;20154;-82
2021/08/26 10:14:50;;;;;;;1.90;1.63;;;20.00;69.20;;;;;;5065721;28;20169;-82
2021/08/26 10:17:16;;;;;;;3.95;1.92;;;20.00;69.30;;;;;;5048761;28;20280;-82
2021/08/26 10:19:42;;;;;;;1.60;1.50;;;20.00;69.30;;;;;;5083115;28;20150;-82
2021/08/26 10:22:08;;;;;;;3.22;1.70;;;20.10;69.50;;;;;;5082992;28;20166;-82
2021/08/26 10:24:35;;;;;;;1.88;1.70;;;20.00;69.40;;;;;;5067125;28;20229;-81
2021/08/26 10:27:14;;;;;;;1.52;1.42;;;20.00;69.50;;;;;;5082193;28;20180;-81
2021/08/26 10:29:45;;;;;;;2.35;1.70;;;20.00;69.60;;;;;;5047817;28;20209;-81
2021/08/26 10:32:17;;;;;;;1.85;1.70;;;20.00;69.80;;;;;;5061963;28;20190;-84
2021/08/26 10:35:04;;;;;;;2.03;1.60;;;20.00;69.90;;;;;;5062342;28;20605;-82
2021/08/26 10:37:54;;;;;;;3.13;1.90;;;20.00;70.10;;;;;;5065339;28;20181;-81
2021/08/26 10:40:32;;;;;;;1.63;1.40;;;19.90;70.00;;;;;;5065229;28;20150;-81
2021/08/26 10:42:58;;;;;;;1.63;1.48;;;20.00;70.00;;;;;;5063969;28;20245;-81
2021/08/26 10:45:27;;;;;;;2.10;1.58;;;20.10;70.00;;;;;;5064156;28;20154;-81
2021/08/26 10:48:07;;;;;;;2.22;1.50;;;20.00;69.90;;;;;;5060516;28;20182;-83
2021/08/26 10:50:37;;;;;;;2.55;1.73;;;20.10;70.00;;;;;;5060476;28;20158;-82
2021/08/26 10:53:25;;;;;;;1.45;1.33;;;20.10;70.00;;;;;;5058539;28;20628;-83
2021/08/26 10:55:52;;;;;;;4.65;1.40;;;20.10;70.10;;;;;;5059964;28;20181;-83
2021/08/26 10:58:38;;;;;;;3.00;1.38;;;20.00;70.30;;;;;;5041254;28;20169;-80
2021/08/26 11:01:10;;;;;;;2.13;1.40;;;20.00;70.50;;;;;;5057942;28;20166;-83
2021/08/26 11:04:01;;;;;;;1.60;1.50;;;20.00;70.50;;;;;;5045104;28;20186;-81
2021/08/26 11:06:36;;;;;;;1.25;1.15;;;20.00;70.50;;;;;;5078451;28;20157;-78
2021/08/26 11:09:21;;;;;;;1.90;1.33;;;19.90;70.50;;;;;;5072896;28;20209;-81
2021/08/26 11:11:57;;;;;;;3.05;1.55;;;20.00;70.70;;;;;;5057417;28;20154;-79
2021/08/26 11:14:27;;;;;;;1.23;1.13;;;20.00;70.50;;;;;;5027191;28;20181;-81
2021/08/26 11:16:55;;;;;;;1.30;1.20;;;20.00;70.70;;;;;;5042053;28;20178;-82
2021/08/26 11:19:30;;;;;;;1.65;1.20;;;20.00;70.70;;;;;;5025766;28;20174;-82
2021/08/26 11:22:03;;;;;;;5.25;1.50;;;20.00;70.60;;;;;;5043542;28;20181;-80
2021/08/26 11:24:53;;;;;;;1.65;1.20;;;20.10;70.80;;;;;;5062418;28;20174;-79
2021/08/26 11:27:24;;;;;;;1.45;1.35;;;20.10;70.80;;;;;;5030589;28;20182;-82
2021/08/26 11:29:51;;;;;;;1.92;1.15;;;20.00;70.80;;;;;;5044726;28;20190;-82
2021/08/26 11:32:20;;;;;;;1.30;1.10;;;20.00;70.90;;;;;;5045337;28;20178;-79
2021/08/26 11:34:49;;;;;;;2.58;1.20;;;20.00;71.00;;;;;;5059100;28;20158;-83
2021/08/26 11:37:36;;;;;;;1.80;1.10;;;20.00;71.20;;;;;;5059729;28;20241;-81
2021/08/26 11:40:10;;;;;;;1.85;1.20;;;20.00;71.30;;;;;;5061190;28;20186;-81
2021/08/26 11:42:41;;;;;;;2.78;1.30;;;20.00;71.30;;;;;;5073038;28;20193;-81
2021/08/26 11:45:25;;;;;;;1.55;1.20;;;20.00;71.40;;;;;;5059583;28;20157;-79
2021/08/26 11:47:58;;;;;;;1.05;1.00;;;20.00;71.40;;;;;;5074393;28;20281;-82
2021/08/26 11:50:27;;;;;;;1.25;1.15;;;20.00;71.40;;;;;;5064536;28;20237;-80
2021/08/26 11:52:59;;;;;;;1.60;1.30;;;20.10;71.60;;;;;;5021998;28;20228;-79
2021/08/26 11:55:33;;;;;;;1.85;1.30;;;20.10;71.80;;;;;;5049924;28;20540;-79
2021/08/26 11:58:11;;;;;;;2.35;1.00;;;20.10;71.80;;;;;;5058108;28;20191;-79
2021/08/26 12:00:42;;;;;;;2.45;1.10;;;20.00;71.90;;;;;;5058236;28;20178;-80
2021/08/26 12:03:09;;;;;;;1.95;1.30;;;20.10;72.00;;;;;;5058377;28;20178;-81
2021/08/26 12:05:39;;;;;;;2.42;1.35;;;20.10;72.10;;;;;;5042477;28;20193;-83
2021/08/26 12:08:06;;;;;;;1.08;0.82;;;20.20;71.80;;;;;;5040890;28;20210;-80
2021/08/26 12:10:39;;;;;;;2.28;1.35;;;20.20;71.80;;;;;;5042017;28;20181;-83
2021/08/26 12:13:08;;;;;;;2.45;1.25;;;20.10;72.00;;;;;;5059216;28;20222;-86
2021/08/26 12:15:45;;;;;;;2.47;1.25;;;20.20;72.00;;;;;;5074531;28;20190;-82
2021/08/26 12:18:17;;;;;;;1.65;1.20;;;20.20;72.00;;;;;;5043424;28;20224;-82
2021/08/26 12:20:55;;;;;;;1.88;1.25;;;20.10;71.90;;;;;;5060853;28;20501;-83
2021/08/26 12:23:28;;;;;;;1.90;1.35;;;20.10;72.20;;;;;;5060052;28;20181;-81
2021/08/26 12:26:16;;;;;;;3.30;1.30;;;20.10;72.10;;;;;;5044062;28;20181;-84
2021/08/26 12:28:44;;;;;;;2.00;1.52;;;20.10;72.10;;;;;;5060546;28;20210;-80
2021/08/26 12:31:15;;;;;;;1.85;1.20;;;20.10;72.10;;;;;;5066160;28;20250;-82
2021/08/26 12:33:59;;;;;;;3.08;1.20;;;20.20;72.20;;;;;;5062555;28;20193;-79
2021/08/26 12:36:25;;;;;;;3.42;1.40;;;20.10;72.10;;;;;;5066228;28;20265;-84
2021/08/26 12:38:56;;;;;;;4.80;1.60;;;20.20;72.50;;;;;;5063589;28;20158;-83
2021/08/26 12:41:23;;;;;;;4.32;1.45;;;20.10;72.40;;;;;;5046509;28;20182;-81
2021/08/26 12:43:52;;;;;;;2.13;1.40;;;20.10;72.30;;;;;;5063569;28;20198;-81
2021/08/26 12:46:20;;;;;;;2.97;1.20;;;20.10;72.60;;;;;;5073733;28;20218;-81
2021/08/26 12:48:46;;;;;;;2.05;1.20;;;20.10;72.50;;;;;;5056933;28;20265;-82
2021/08/26 12:51:22;;;;;;;3.03;1.02;;;20.20;72.40;;;;;;5043418;28;20171;-84
2021/08/26 12:54:11;;;;;;;3.13;1.33;;;20.20;72.10;;;;;;5042814;28;20266;-84
2021/08/26 12:56:44;;;;;;;2.38;1.30;;;20.20;72.20;;;;;;5045368;28;20167;-83
2021/08/26 12:59:12;;;;;;;2.95;1.40;;;20.20;72.20;;;;;;5029188;28;20169;-80
2021/08/26 13:01:41;;;;;;;2.28;1.38;;;20.20;72.10;;;;;;5028050;28;20181;-81
2021/08/26 13:04:20;;;;;;;2.63;1.20;;;20.30;71.90;;;;;;5064948;28;20159;-80
2021/08/26 13:06:48;;;;;;;2.60;1.20;;;20.20;72.00;;;;;;5077048;28;20234;-79
2021/08/26 13:09:36;;;;;;;2.97;1.50;;;20.30;72.40;;;;;;5033084;28;20225;-81